PWSweather.com
Personal Weather Stations
Station Observations
WAIROAHB
Wairoa, Northern Hawkes Bay -NZ 4108

WairoaNorthern Hawkes Bay -NZ 4108

Lat: -39.04516934, Lon: 177.4263989

Elevation: 156

Station Type: WS3083

http://wairoa.net/weather/index.htm

High Low Average
Temperature 54.3°F12.4°C 39.6°F4.2°C 46.8°F8.2°C
Dew Point 48.6°F9.2°C 37.3°F2.9°C 43.5°F6.4°C
Winds 10.7 mph 17.2 kmh Calm Calm 3.0 mph SW4.8 kmh SW
Wind Gusts 17.4 mph28.0 kmh -- 7.0 mph11.3 kmh
Humidity 99% 72% 88%
Pressure 30.42 in1030.1 mb 30.04 in1017.3 mb -
Precipitation 0.06 in1.5 mm - -
Hour Temp Dew Point Humidity Winds Wind Gusts Pressure Precip Precip Rate Daily Precip Total
12:00 AM 41.9°F5.5°C 38.9°F3.8°C 89% 3.1 mph NW5.0 kmh NW 6.0 mph9.7 kmh 30.07 in1018.3 mb 0.00 in0.0 mm 0.00 in0.0 mm 0.00 in0.0 mm
12:10 AM 41.7°F5.4°C 38.7°F3.7°C 89% 1.6 mph NNW2.6 kmh NNW 5.4 mph8.7 kmh 30.07 in1018.3 mb 0.00 in0.0 mm 0.00 in0.0 mm 0.00 in0.0 mm
12:20 AM 41.5°F5.3°C 38.5°F3.6°C 89% 3.1 mph N5.0 kmh N 3.8 mph6.1 kmh 30.07 in1018.3 mb 0.00 in0.0 mm 0.00 in0.0 mm 0.00 in0.0 mm
12:30 AM 41.2°F5.1°C 38.5°F3.6°C 90% 1.6 mph N2.6 kmh N 3.8 mph6.1 kmh 30.06 in1017.9 mb 0.00 in0.0 mm 0.00 in0.0 mm 0.00 in0.0 mm
12:40 AM 41.2°F5.1°C 38.8°F3.8°C 91% 1.6 mph N2.6 kmh N 3.8 mph6.1 kmh 30.07 in1018.3 mb 0.00 in0.0 mm 0.00 in0.0 mm 0.00 in0.0 mm
12:50 AM 41.0°F5.0°C 38.6°F3.7°C 91% 3.1 mph N5.0 kmh N 4.5 mph7.2 kmh 30.06 in1017.9 mb 0.00 in0.0 mm 0.00 in0.0 mm 0.00 in0.0 mm
01:00 AM 40.8°F4.9°C 39.0°F3.9°C 93% 3.8 mph NW6.1 kmh NW 5.4 mph8.7 kmh 30.06 in1017.9 mb 0.00 in0.0 mm 0.00 in0.0 mm 0.00 in0.0 mm
01:10 AM 41.2°F5.1°C 39.3°F4.1°C 93% 4.5 mph NW7.2 kmh NW 6.0 mph9.7 kmh 30.06 in1017.9 mb 0.00 in0.0 mm 0.00 in0.0 mm 0.00 in0.0 mm
01:20 AM 41.2°F5.1°C 39.3°F4.1°C 93% 3.8 mph NW6.1 kmh NW 6.9 mph11.1 kmh 30.06 in1017.9 mb 0.00 in0.0 mm 0.00 in0.0 mm 0.00 in0.0 mm
01:30 AM 41.4°F5.2°C 39.5°F4.2°C 93% 3.1 mph NW5.0 kmh NW 5.4 mph8.7 kmh 30.06 in1017.9 mb 0.00 in0.0 mm 0.00 in0.0 mm 0.00 in0.0 mm
01:40 AM 40.8°F4.9°C 39.0°F3.9°C 93% 3.1 mph NW5.0 kmh NW 5.4 mph8.7 kmh 30.06 in1017.9 mb 0.00 in0.0 mm 0.00 in0.0 mm 0.00 in0.0 mm
01:50 AM 41.0°F5.0°C 39.1°F3.9°C 93% 3.1 mph NW5.0 kmh NW 6.0 mph9.7 kmh 30.07 in1018.3 mb 0.00 in0.0 mm 0.00 in0.0 mm 0.00 in0.0 mm
02:00 AM 41.2°F5.1°C 39.3°F4.1°C 93% 3.8 mph NW6.1 kmh NW 6.0 mph9.7 kmh 30.07 in1018.3 mb 0.00 in0.0 mm 0.00 in0.0 mm 0.00 in0.0 mm
02:10 AM 40.8°F4.9°C 39.0°F3.9°C 93% 2.2 mph NNW3.5 kmh NNW 5.4 mph8.7 kmh 30.07 in1018.3 mb 0.00 in0.0 mm 0.00 in0.0 mm 0.00 in0.0 mm
02:20 AM 40.1°F4.5°C 38.2°F3.4°C 93% 1.6 mph N2.6 kmh N 3.8 mph6.1 kmh 30.07 in1018.3 mb 0.00 in0.0 mm 0.00 in0.0 mm 0.00 in0.0 mm
02:30 AM 39.6°F4.2°C 38.0°F3.3°C 94% 3.1 mph NNW5.0 kmh NNW 3.8 mph6.1 kmh 30.06 in1017.9 mb 0.00 in0.0 mm 0.00 in0.0 mm 0.00 in0.0 mm
02:40 AM 39.6°F4.2°C 38.0°F3.3°C 94% 3.8 mph NW6.1 kmh NW 5.4 mph8.7 kmh 30.07 in1018.3 mb 0.00 in0.0 mm 0.00 in0.0 mm 0.00 in0.0 mm
02:50 AM 40.5°F4.7°C 39.1°F3.9°C 95% 4.5 mph NW7.2 kmh NW 6.9 mph11.1 kmh 30.06 in1017.9 mb 0.00 in0.0 mm 0.00 in0.0 mm 0.00 in0.0 mm
03:00 AM 40.3°F4.6°C 38.7°F3.7°C 94% 5.4 mph NW8.7 kmh NW 8.3 mph13.4 kmh 30.06 in1017.9 mb 0.00 in0.0 mm 0.00 in0.0 mm 0.00 in0.0 mm
03:30 AM 41.5°F5.3°C 39.7°F4.3°C 93% 7.6 mph NW12.2 kmh NW 11.4 mph18.3 kmh 30.04 in1017.3 mb 0.00 in0.0 mm 0.00 in0.0 mm 0.00 in0.0 mm
03:40 AM 42.1°F5.6°C 39.4°F4.1°C 90% 5.4 mph NW8.7 kmh NW 13.0 mph20.9 kmh 30.04 in1017.3 mb 0.00 in0.0 mm 0.00 in0.0 mm 0.00 in0.0 mm
03:50 AM 43.2°F6.2°C 39.9°F4.4°C 88% 1.6 mph N2.6 kmh N 4.5 mph7.2 kmh 30.05 in1017.6 mb 0.00 in0.0 mm 0.00 in0.0 mm 0.00 in0.0 mm
04:00 AM 43.7°F6.5°C 39.8°F4.3°C 86% 3.8 mph N6.1 kmh N 5.4 mph8.7 kmh 30.05 in1017.6 mb 0.00 in0.0 mm 0.00 in0.0 mm 0.00 in0.0 mm
04:10 AM 44.1°F6.7°C 39.5°F4.2°C 84% 3.1 mph N5.0 kmh N 5.4 mph8.7 kmh 30.07 in1018.3 mb 0.00 in0.0 mm 0.00 in0.0 mm 0.00 in0.0 mm
04:20 AM 44.1°F6.7°C 39.2°F4.0°C 83% 3.1 mph N5.0 kmh N 5.4 mph8.7 kmh 30.07 in1018.3 mb 0.00 in0.0 mm 0.00 in0.0 mm 0.00 in0.0 mm
04:30 AM 43.7°F6.5°C 38.9°F3.8°C 83% 1.6 mph N2.6 kmh N 4.5 mph7.2 kmh 30.07 in1018.3 mb 0.00 in0.0 mm 0.00 in0.0 mm 0.00 in0.0 mm
04:40 AM 42.6°F5.9°C 38.1°F3.4°C 84% 3.1 mph NW5.0 kmh NW 4.5 mph7.2 kmh 30.07 in1018.3 mb 0.00 in0.0 mm 0.00 in0.0 mm 0.00 in0.0 mm
04:50 AM 42.1°F5.6°C 38.2°F3.4°C 86% 1.6 mph NW2.6 kmh NW 4.5 mph7.2 kmh 30.07 in1018.3 mb 0.00 in0.0 mm 0.00 in0.0 mm 0.00 in0.0 mm
05:00 AM 42.3°F5.7°C 38.7°F3.7°C 87% 2.2 mph N3.5 kmh N 3.8 mph6.1 kmh 30.07 in1018.3 mb 0.00 in0.0 mm 0.00 in0.0 mm 0.00 in0.0 mm
05:10 AM 42.1°F5.6°C 38.2°F3.4°C 86% 3.1 mph NW5.0 kmh NW 6.0 mph9.7 kmh 30.07 in1018.3 mb 0.00 in0.0 mm 0.00 in0.0 mm 0.00 in0.0 mm
05:20 AM 41.9°F5.5°C 38.3°F3.5°C 87% 2.2 mph NW3.5 kmh NW 5.4 mph8.7 kmh 30.09 in1019.0 mb 0.00 in0.0 mm 0.00 in0.0 mm 0.00 in0.0 mm
05:30 AM 41.7°F5.4°C 38.1°F3.4°C 87% 3.1 mph NNW5.0 kmh NNW 4.5 mph7.2 kmh 30.09 in1019.0 mb 0.00 in0.0 mm 0.00 in0.0 mm 0.00 in0.0 mm
05:40 AM 40.8°F4.9°C 37.3°F2.9°C 87% 1.6 mph NW2.6 kmh NW 3.8 mph6.1 kmh 30.10 in1019.3 mb 0.00 in0.0 mm 0.00 in0.0 mm 0.00 in0.0 mm
05:50 AM 41.2°F5.1°C 37.9°F3.3°C 88% 4.5 mph NW7.2 kmh NW 6.0 mph9.7 kmh 30.09 in1019.0 mb 0.00 in0.0 mm 0.00 in0.0 mm 0.00 in0.0 mm
06:00 AM 41.9°F5.5°C 38.6°F3.7°C 88% 3.8 mph NW6.1 kmh NW 8.3 mph13.4 kmh 30.10 in1019.3 mb 0.00 in0.0 mm 0.00 in0.0 mm 0.00 in0.0 mm
06:10 AM 41.7°F5.4°C 38.1°F3.4°C 87% 3.8 mph NW6.1 kmh NW 5.4 mph8.7 kmh 30.11 in1019.6 mb 0.00 in0.0 mm 0.00 in0.0 mm 0.00 in0.0 mm
06:20 AM 41.0°F5.0°C 37.4°F3.0°C 87% 3.1 mph NNW5.0 kmh NNW 5.4 mph8.7 kmh 30.12 in1020.0 mb 0.00 in0.0 mm 0.00 in0.0 mm 0.00 in0.0 mm
06:30 AM 40.8°F4.9°C 37.8°F3.2°C 89% 3.1 mph NW5.0 kmh NW 6.0 mph9.7 kmh 30.12 in1020.0 mb 0.00 in0.0 mm 0.00 in0.0 mm 0.00 in0.0 mm
06:40 AM 40.6°F4.8°C 37.9°F3.3°C 90% 5.4 mph NW8.7 kmh NW 7.6 mph12.2 kmh 30.12 in1020.0 mb 0.00 in0.0 mm 0.00 in0.0 mm 0.00 in0.0 mm
06:50 AM 40.8°F4.9°C 38.4°F3.6°C 91% 6.0 mph NW9.7 kmh NW 8.3 mph13.4 kmh 30.13 in1020.3 mb 0.00 in0.0 mm 0.00 in0.0 mm 0.00 in0.0 mm
07:00 AM 40.6°F4.8°C 37.9°F3.3°C 90% 3.1 mph NNW5.0 kmh NNW 7.6 mph12.2 kmh 30.14 in1020.7 mb 0.00 in0.0 mm 0.00 in0.0 mm 0.00 in0.0 mm
07:10 AM 40.3°F4.6°C 37.9°F3.3°C 91% 4.5 mph NW7.2 kmh NW 6.9 mph11.1 kmh 30.14 in1020.7 mb 0.00 in0.0 mm 0.00 in0.0 mm 0.00 in0.0 mm
07:20 AM 40.6°F4.8°C 38.2°F3.4°C 91% 4.5 mph NW7.2 kmh NW 9.2 mph14.8 kmh 30.14 in1020.7 mb 0.00 in0.0 mm 0.00 in0.0 mm 0.00 in0.0 mm
07:30 AM 40.8°F4.9°C 38.4°F3.6°C 91% 4.5 mph NW7.2 kmh NW 9.2 mph14.8 kmh 30.15 in1021.0 mb 0.00 in0.0 mm 0.00 in0.0 mm 0.00 in0.0 mm
07:40 AM 40.8°F4.9°C 38.4°F3.6°C 91% 2.2 mph N3.5 kmh N 8.3 mph13.4 kmh 30.16 in1021.3 mb 0.00 in0.0 mm 0.00 in0.0 mm 0.00 in0.0 mm
07:50 AM 41.0°F5.0°C 38.3°F3.5°C 90% 4.5 mph NW7.2 kmh NW 7.6 mph12.2 kmh 30.16 in1021.3 mb 0.00 in0.0 mm 0.00 in0.0 mm 0.00 in0.0 mm
08:00 AM 41.5°F5.3°C 38.5°F3.6°C 89% 6.0 mph NW9.7 kmh NW 8.3 mph13.4 kmh 30.17 in1021.7 mb 0.00 in0.0 mm 0.00 in0.0 mm 0.00 in0.0 mm
08:10 AM 42.1°F5.6°C 38.8°F3.8°C 88% 6.0 mph NW9.7 kmh NW 9.8 mph15.8 kmh 30.17 in1021.7 mb 0.00 in0.0 mm 0.00 in0.0 mm 0.00 in0.0 mm
08:20 AM 42.6°F5.9°C 39.0°F3.9°C 87% 3.1 mph NNW5.0 kmh NNW 7.6 mph12.2 kmh 30.18 in1022.0 mb 0.00 in0.0 mm 0.00 in0.0 mm 0.00 in0.0 mm
08:30 AM 43.3°F6.3°C 39.1°F3.9°C 85% 3.8 mph NNW6.1 kmh NNW 6.9 mph11.1 kmh 30.19 in1022.4 mb 0.00 in0.0 mm 0.00 in0.0 mm 0.00 in0.0 mm
08:40 AM 43.7°F6.5°C 39.5°F4.2°C 85% 4.5 mph NW7.2 kmh NW 8.3 mph13.4 kmh 30.19 in1022.4 mb 0.00 in0.0 mm 0.00 in0.0 mm 0.00 in0.0 mm
08:50 AM 44.1°F6.7°C 39.5°F4.2°C 84% 4.5 mph NW7.2 kmh NW 7.6 mph12.2 kmh 30.20 in1022.7 mb 0.00 in0.0 mm 0.00 in0.0 mm 0.00 in0.0 mm
09:00 AM 45.0°F7.2°C 40.1°F4.5°C 83% 5.4 mph NW8.7 kmh NW 7.6 mph12.2 kmh 30.20 in1022.7 mb 0.00 in0.0 mm 0.00 in0.0 mm 0.00 in0.0 mm
09:10 AM 45.9°F7.7°C 40.7°F4.8°C 82% 3.8 mph NW6.1 kmh NW 7.6 mph12.2 kmh 30.20 in1022.7 mb 0.00 in0.0 mm 0.00 in0.0 mm 0.00 in0.0 mm
09:20 AM 46.0°F7.8°C 40.5°F4.7°C 81% 4.5 mph NNW7.2 kmh NNW 8.3 mph13.4 kmh 30.21 in1023.0 mb 0.00 in0.0 mm 0.00 in0.0 mm 0.00 in0.0 mm
09:30 AM 46.6°F8.1°C 40.7°F4.8°C 80% 4.5 mph NW7.2 kmh NW 9.2 mph14.8 kmh 30.22 in1023.4 mb 0.00 in0.0 mm 0.00 in0.0 mm 0.00 in0.0 mm
09:40 AM 47.3°F8.5°C 41.1°F5.1°C 79% 6.9 mph NW11.1 kmh NW 9.2 mph14.8 kmh 30.23 in1023.7 mb 0.00 in0.0 mm 0.00 in0.0 mm 0.00 in0.0 mm
09:50 AM 48.4°F9.1°C 41.5°F5.3°C 77% 4.5 mph NW7.2 kmh NW 9.2 mph14.8 kmh 30.23 in1023.7 mb 0.00 in0.0 mm 0.00 in0.0 mm 0.00 in0.0 mm
10:00 AM 50.0°F10.0°C 42.0°F5.6°C 74% 4.5 mph NW7.2 kmh NW 7.6 mph12.2 kmh 30.25 in1024.4 mb 0.00 in0.0 mm 0.00 in0.0 mm 0.00 in0.0 mm
10:10 AM 49.5°F9.7°C 41.5°F5.3°C 74% 4.5 mph N7.2 kmh N 6.0 mph9.7 kmh 30.25 in1024.4 mb 0.00 in0.0 mm 0.00 in0.0 mm 0.00 in0.0 mm
10:20 AM 48.7°F9.3°C 41.5°F5.3°C 76% 3.1 mph N5.0 kmh N 6.0 mph9.7 kmh 30.26 in1024.7 mb 0.00 in0.0 mm 0.00 in0.0 mm 0.00 in0.0 mm
10:30 AM 49.3°F9.6°C 42.4°F5.8°C 77% 2.2 mph NNW3.5 kmh NNW 6.0 mph9.7 kmh 30.26 in1024.7 mb 0.00 in0.0 mm 0.00 in0.0 mm 0.00 in0.0 mm
10:40 AM 49.5°F9.7°C 42.6°F5.9°C 77% 0.7 mph N1.1 kmh N 4.5 mph7.2 kmh 30.27 in1025.1 mb 0.00 in0.0 mm 0.00 in0.0 mm 0.00 in0.0 mm
10:50 AM 49.8°F9.9°C 43.2°F6.2°C 78% 1.6 mph NNE2.6 kmh NNE 6.9 mph11.1 kmh 30.27 in1025.1 mb 0.00 in0.0 mm 0.00 in0.0 mm 0.00 in0.0 mm
11:00 AM 50.5°F10.3°C 44.9°F7.2°C 81% 4.5 mph SW7.2 kmh SW 6.9 mph11.1 kmh 30.27 in1025.1 mb 0.00 in0.0 mm 0.00 in0.0 mm 0.00 in0.0 mm
11:10 AM 53.1°F11.7°C 48.0°F8.9°C 83% 6.0 mph SSW9.7 kmh SSW 15.9 mph25.6 kmh 30.27 in1025.1 mb 0.00 in0.0 mm 0.00 in0.0 mm 0.00 in0.0 mm
11:20 AM 53.8°F12.1°C 48.1°F8.9°C 81% 10.7 mph SSW17.2 kmh SSW 15.2 mph24.5 kmh 30.27 in1025.1 mb 0.00 in0.0 mm 0.00 in0.0 mm 0.00 in0.0 mm
11:30 AM 53.8°F12.1°C 47.1°F8.4°C 78% 9.2 mph SSW14.8 kmh SSW 16.8 mph27.0 kmh 30.28 in1025.4 mb 0.00 in0.0 mm 0.00 in0.0 mm 0.00 in0.0 mm
11:40 AM 54.3°F12.4°C 48.6°F9.2°C 81% 5.4 mph SSW8.7 kmh SSW 15.9 mph25.6 kmh 30.28 in1025.4 mb 0.00 in0.0 mm 0.00 in0.0 mm 0.00 in0.0 mm
11:50 AM 54.0°F12.2°C 48.6°F9.2°C 82% 7.6 mph S12.2 kmh S 13.0 mph20.9 kmh 30.28 in1025.4 mb 0.00 in0.0 mm 0.00 in0.0 mm 0.00 in0.0 mm
12:00 PM 54.1°F12.3°C 47.8°F8.8°C 79% 7.6 mph SSW12.2 kmh SSW 15.2 mph24.5 kmh 30.28 in1025.4 mb 0.00 in0.0 mm 0.00 in0.0 mm 0.00 in0.0 mm
12:10 PM 54.1°F12.3°C 47.4°F8.6°C 78% 9.2 mph S14.8 kmh S 15.2 mph24.5 kmh 30.28 in1025.4 mb 0.00 in0.0 mm 0.00 in0.0 mm 0.00 in0.0 mm
12:20 PM 54.1°F12.3°C 47.1°F8.4°C 77% 9.8 mph SSW15.8 kmh SSW 15.2 mph24.5 kmh 30.28 in1025.4 mb 0.00 in0.0 mm 0.00 in0.0 mm 0.00 in0.0 mm
12:30 PM 53.8°F12.1°C 47.4°F8.6°C 79% 7.6 mph SSW12.2 kmh SSW 15.9 mph25.6 kmh 30.28 in1025.4 mb 0.00 in0.0 mm 0.00 in0.0 mm 0.00 in0.0 mm
12:40 PM 52.9°F11.6°C 47.9°F8.8°C 83% 8.3 mph SSW13.4 kmh SSW 17.4 mph28.0 kmh 30.29 in1025.7 mb 0.00 in0.0 mm 0.00 in0.0 mm 0.00 in0.0 mm
12:50 PM 51.8°F11.0°C 48.1°F8.9°C 87% 8.3 mph SW13.4 kmh SW 13.6 mph21.9 kmh 30.28 in1025.4 mb 0.00 in0.0 mm 0.00 in0.0 mm 0.00 in0.0 mm
01:00 PM 51.3°F10.7°C 47.2°F8.4°C 86% 3.8 mph S6.1 kmh S 12.1 mph19.5 kmh 30.29 in1025.7 mb 0.02 in0.5 mm 0.02 in0.5 mm 0.02 in0.5 mm
01:10 PM 51.4°F10.8°C 48.0°F8.9°C 88% 3.8 mph S6.1 kmh S 9.2 mph14.8 kmh 30.29 in1025.7 mb 0.02 in0.5 mm 0.00 in0.0 mm 0.02 in0.5 mm
01:20 PM 52.2°F11.2°C 48.4°F9.1°C 87% 4.5 mph SSE7.2 kmh SSE 7.6 mph12.2 kmh 30.28 in1025.4 mb 0.02 in0.5 mm 0.00 in0.0 mm 0.02 in0.5 mm
01:30 PM 52.5°F11.4°C 47.8°F8.8°C 84% 5.4 mph S8.7 kmh S 10.7 mph17.2 kmh 30.28 in1025.4 mb 0.04 in1.0 mm 0.12 in3.0 mm 0.04 in1.0 mm
01:40 PM 52.9°F11.6°C 47.5°F8.6°C 82% 4.5 mph S7.2 kmh S 9.2 mph14.8 kmh 30.28 in1025.4 mb 0.04 in1.0 mm 0.00 in0.0 mm 0.04 in1.0 mm
01:50 PM 53.2°F11.8°C 47.2°F8.4°C 80% 6.0 mph SSW9.7 kmh SSW 10.7 mph17.2 kmh 30.29 in1025.7 mb 0.04 in1.0 mm 0.00 in0.0 mm 0.04 in1.0 mm
02:00 PM 53.4°F11.9°C 46.4°F8.0°C 77% 6.0 mph SW9.7 kmh SW 11.4 mph18.3 kmh 30.28 in1025.4 mb 0.01 in0.3 mm 0.00 in0.0 mm 0.04 in1.0 mm
02:10 PM 53.6°F12.0°C 46.2°F7.9°C 76% 7.6 mph SW12.2 kmh SW 14.5 mph23.3 kmh 30.29 in1025.7 mb 0.01 in0.3 mm 0.00 in0.0 mm 0.04 in1.0 mm
02:20 PM 53.2°F11.8°C 47.2°F8.4°C 80% 7.6 mph SW12.2 kmh SW 12.1 mph19.5 kmh 30.29 in1025.7 mb 0.00 in0.0 mm 0.00 in0.0 mm 0.04 in1.0 mm
02:30 PM 53.2°F11.8°C 46.6°F8.1°C 78% 8.3 mph SW13.4 kmh SW 15.9 mph25.6 kmh 30.30 in1026.1 mb 0.00 in0.0 mm 0.00 in0.0 mm 0.04 in1.0 mm
02:40 PM 53.4°F11.9°C 46.1°F7.8°C 76% 6.0 mph SW9.7 kmh SW 12.1 mph19.5 kmh 30.30 in1026.1 mb 0.00 in0.0 mm 0.00 in0.0 mm 0.04 in1.0 mm
02:50 PM 53.4°F11.9°C 45.3°F7.4°C 74% 5.4 mph SSW8.7 kmh SSW 13.0 mph20.9 kmh 30.30 in1026.1 mb 0.00 in0.0 mm 0.00 in0.0 mm 0.04 in1.0 mm
03:00 PM 53.2°F11.8°C 44.5°F6.9°C 72% 3.8 mph SW6.1 kmh SW 13.0 mph20.9 kmh 30.30 in1026.1 mb 0.00 in0.0 mm 0.00 in0.0 mm 0.04 in1.0 mm
03:10 PM 53.2°F11.8°C 45.5°F7.5°C 75% 4.5 mph SW7.2 kmh SW 9.2 mph14.8 kmh 30.30 in1026.1 mb 0.00 in0.0 mm 0.00 in0.0 mm 0.04 in1.0 mm
03:20 PM 52.5°F11.4°C 45.9°F7.7°C 78% 8.3 mph SW13.4 kmh SW 12.1 mph19.5 kmh 30.31 in1026.4 mb 0.00 in0.0 mm 0.00 in0.0 mm 0.04 in1.0 mm
03:30 PM 51.8°F11.0°C 45.8°F7.7°C 80% 6.9 mph SW11.1 kmh SW 16.8 mph27.0 kmh 30.31 in1026.4 mb 0.00 in0.0 mm 0.00 in0.0 mm 0.04 in1.0 mm
03:40 PM 51.6°F10.9°C 46.0°F7.8°C 81% 8.3 mph SW13.4 kmh SW 13.6 mph21.9 kmh 30.31 in1026.4 mb 0.00 in0.0 mm 0.00 in0.0 mm 0.04 in1.0 mm
03:50 PM 50.9°F10.5°C 46.2°F7.9°C 84% 7.6 mph SW12.2 kmh SW 12.1 mph19.5 kmh 30.32 in1026.8 mb 0.00 in0.0 mm 0.00 in0.0 mm 0.04 in1.0 mm
04:00 PM 50.4°F10.2°C 46.3°F7.9°C 86% 3.8 mph SW6.1 kmh SW 9.8 mph15.8 kmh 30.32 in1026.8 mb 0.00 in0.0 mm 0.00 in0.0 mm 0.04 in1.0 mm
04:10 PM 50.2°F10.1°C 46.5°F8.1°C 87% 1.6 mph WSW2.6 kmh WSW 5.4 mph8.7 kmh 30.32 in1026.8 mb 0.00 in0.0 mm 0.00 in0.0 mm 0.04 in1.0 mm
04:20 PM 50.2°F10.1°C 46.5°F8.1°C 87% 3.8 mph WNW6.1 kmh WNW 5.4 mph8.7 kmh 30.32 in1026.8 mb 0.00 in0.0 mm 0.00 in0.0 mm 0.04 in1.0 mm
04:30 PM 50.0°F10.0°C 46.6°F8.1°C 88% 1.6 mph NW2.6 kmh NW 6.0 mph9.7 kmh 30.32 in1026.8 mb 0.00 in0.0 mm 0.00 in0.0 mm 0.04 in1.0 mm
04:40 PM 50.0°F10.0°C 46.9°F8.3°C 89% 1.6 mph W2.6 kmh W 3.8 mph6.1 kmh 30.32 in1026.8 mb 0.00 in0.0 mm 0.00 in0.0 mm 0.04 in1.0 mm
04:50 PM 49.8°F9.9°C 47.0°F8.3°C 90% Calm Calm 2.2 mph3.5 kmh 30.32 in1026.8 mb 0.00 in0.0 mm 0.00 in0.0 mm 0.04 in1.0 mm
05:00 PM 49.8°F9.9°C 47.0°F8.3°C 90% Calm Calm -- 30.33 in1027.1 mb 0.00 in0.0 mm 0.00 in0.0 mm 0.04 in1.0 mm
05:10 PM 49.6°F9.8°C 47.1°F8.4°C 91% Calm Calm 2.2 mph3.5 kmh 30.33 in1027.1 mb 0.00 in0.0 mm 0.00 in0.0 mm 0.04 in1.0 mm
05:20 PM 49.5°F9.7°C 47.2°F8.4°C 92% Calm Calm 0.7 mph1.1 kmh 30.34 in1027.4 mb 0.00 in0.0 mm 0.00 in0.0 mm 0.04 in1.0 mm
05:30 PM 49.3°F9.6°C 47.1°F8.4°C 92% Calm Calm -- 30.34 in1027.4 mb 0.00 in0.0 mm 0.00 in0.0 mm 0.04 in1.0 mm
05:40 PM 49.1°F9.5°C 47.2°F8.4°C 93% Calm Calm -- 30.34 in1027.4 mb 0.00 in0.0 mm 0.00 in0.0 mm 0.04 in1.0 mm
05:50 PM 49.1°F9.5°C 47.2°F8.4°C 93% 1.6 mph NW2.6 kmh NW 3.8 mph6.1 kmh 30.35 in1027.8 mb 0.00 in0.0 mm 0.00 in0.0 mm 0.04 in1.0 mm
06:00 PM 48.9°F9.4°C 47.3°F8.5°C 94% Calm Calm 2.2 mph3.5 kmh 30.35 in1027.8 mb 0.00 in0.0 mm 0.00 in0.0 mm 0.04 in1.0 mm
06:10 PM 48.7°F9.3°C 47.1°F8.4°C 94% Calm Calm 2.2 mph3.5 kmh 30.35 in1027.8 mb 0.00 in0.0 mm 0.00 in0.0 mm 0.04 in1.0 mm
06:20 PM 48.7°F9.3°C 47.1°F8.4°C 94% Calm Calm 2.2 mph3.5 kmh 30.35 in1027.8 mb 0.00 in0.0 mm 0.00 in0.0 mm 0.04 in1.0 mm
06:30 PM 48.6°F9.2°C 46.9°F8.3°C 94% Calm Calm 2.2 mph3.5 kmh 30.36 in1028.1 mb 0.00 in0.0 mm 0.00 in0.0 mm 0.04 in1.0 mm
06:40 PM 48.6°F9.2°C 47.2°F8.4°C 95% Calm Calm 2.2 mph3.5 kmh 30.36 in1028.1 mb 0.00 in0.0 mm 0.00 in0.0 mm 0.04 in1.0 mm
06:50 PM 48.6°F9.2°C 47.2°F8.4°C 95% 0.7 mph N1.1 kmh N 4.5 mph7.2 kmh 30.36 in1028.1 mb 0.00 in0.0 mm 0.00 in0.0 mm 0.04 in1.0 mm
07:00 PM 48.7°F9.3°C 47.4°F8.6°C 95% 1.6 mph N2.6 kmh N 3.8 mph6.1 kmh 30.37 in1028.4 mb 0.00 in0.0 mm 0.00 in0.0 mm 0.04 in1.0 mm
07:10 PM 48.7°F9.3°C 47.1°F8.4°C 94% 3.8 mph N6.1 kmh N 4.5 mph7.2 kmh 30.37 in1028.4 mb 0.00 in0.0 mm 0.00 in0.0 mm 0.04 in1.0 mm
07:20 PM 48.7°F9.3°C 47.1°F8.4°C 94% Calm Calm 4.5 mph7.2 kmh 30.37 in1028.4 mb 0.00 in0.0 mm 0.00 in0.0 mm 0.04 in1.0 mm
07:30 PM 48.6°F9.2°C 46.9°F8.3°C 94% Calm Calm 1.6 mph2.6 kmh 30.38 in1028.8 mb 0.00 in0.0 mm 0.00 in0.0 mm 0.04 in1.0 mm
07:40 PM 48.6°F9.2°C 47.2°F8.4°C 95% Calm Calm 3.1 mph5.0 kmh 30.38 in1028.8 mb 0.00 in0.0 mm 0.00 in0.0 mm 0.04 in1.0 mm
07:50 PM 48.2°F9.0°C 46.8°F8.2°C 95% Calm Calm 3.1 mph5.0 kmh 30.38 in1028.8 mb 0.00 in0.0 mm 0.00 in0.0 mm 0.04 in1.0 mm
08:00 PM 48.2°F9.0°C 46.8°F8.2°C 95% Calm Calm 3.1 mph5.0 kmh 30.39 in1029.1 mb 0.00 in0.0 mm 0.00 in0.0 mm 0.04 in1.0 mm
08:10 PM 48.2°F9.0°C 46.8°F8.2°C 95% Calm Calm -- 30.39 in1029.1 mb 0.00 in0.0 mm 0.00 in0.0 mm 0.04 in1.0 mm
08:20 PM 48.2°F9.0°C 47.1°F8.4°C 96% 2.2 mph NNW3.5 kmh NNW 6.0 mph9.7 kmh 30.39 in1029.1 mb 0.00 in0.0 mm 0.00 in0.0 mm 0.04 in1.0 mm
08:30 PM 48.2°F9.0°C 47.1°F8.4°C 96% Calm Calm 5.4 mph8.7 kmh 30.39 in1029.1 mb 0.00 in0.0 mm 0.00 in0.0 mm 0.04 in1.0 mm
08:40 PM 48.0°F8.9°C 47.2°F8.4°C 97% 3.1 mph NW5.0 kmh NW 3.8 mph6.1 kmh 30.40 in1029.5 mb 0.00 in0.0 mm 0.00 in0.0 mm 0.04 in1.0 mm
08:50 PM 48.0°F8.9°C 47.2°F8.4°C 97% 1.6 mph NW2.6 kmh NW 3.8 mph6.1 kmh 30.41 in1029.8 mb 0.00 in0.0 mm 0.00 in0.0 mm 0.04 in1.0 mm
09:00 PM 47.8°F8.8°C 47.3°F8.5°C 98% 1.6 mph NW2.6 kmh NW 3.1 mph5.0 kmh 30.41 in1029.8 mb 0.01 in0.3 mm 0.01 in0.3 mm 0.05 in1.3 mm
09:10 PM 47.7°F8.7°C 47.1°F8.4°C 98% Calm Calm 3.1 mph5.0 kmh 30.41 in1029.8 mb 0.01 in0.3 mm 0.00 in0.0 mm 0.05 in1.3 mm
09:20 PM 47.5°F8.6°C 46.9°F8.3°C 98% Calm Calm -- 30.41 in1029.8 mb 0.02 in0.5 mm 0.06 in1.5 mm 0.06 in1.5 mm
09:30 PM 47.3°F8.5°C 47.0°F8.3°C 99% Calm Calm -- 30.41 in1029.8 mb 0.02 in0.5 mm 0.00 in0.0 mm 0.06 in1.5 mm
09:40 PM 47.3°F8.5°C 47.0°F8.3°C 99% Calm Calm -- 30.41 in1029.8 mb 0.02 in0.5 mm 0.00 in0.0 mm 0.06 in1.5 mm
09:50 PM 47.3°F8.5°C 47.0°F8.3°C 99% Calm Calm -- 30.41 in1029.8 mb 0.02 in0.5 mm 0.00 in0.0 mm 0.06 in1.5 mm
10:00 PM 47.3°F8.5°C 47.0°F8.3°C 99% 0.7 mph ENE1.1 kmh ENE 3.8 mph6.1 kmh 30.41 in1029.8 mb 0.01 in0.3 mm 0.00 in0.0 mm 0.06 in1.5 mm
10:10 PM 47.3°F8.5°C 47.0°F8.3°C 99% Calm Calm 3.1 mph5.0 kmh 30.41 in1029.8 mb 0.01 in0.3 mm 0.00 in0.0 mm 0.06 in1.5 mm
10:20 PM 47.3°F8.5°C 47.0°F8.3°C 99% Calm Calm -- 30.41 in1029.8 mb 0.00 in0.0 mm 0.00 in0.0 mm 0.06 in1.5 mm
10:30 PM 47.1°F8.4°C 46.9°F8.3°C 99% Calm Calm -- 30.41 in1029.8 mb 0.00 in0.0 mm 0.00 in0.0 mm 0.06 in1.5 mm
10:40 PM 47.1°F8.4°C 46.9°F8.3°C 99% Calm Calm -- 30.41 in1029.8 mb 0.00 in0.0 mm 0.00 in0.0 mm 0.06 in1.5 mm
10:50 PM 47.1°F8.4°C 46.9°F8.3°C 99% 2.2 mph NW3.5 kmh NW 3.8 mph6.1 kmh 30.41 in1029.8 mb 0.00 in0.0 mm 0.00 in0.0 mm 0.06 in1.5 mm
11:00 PM 46.9°F8.3°C 46.7°F8.2°C 99% 1.6 mph NNW2.6 kmh NNW 4.5 mph7.2 kmh 30.41 in1029.8 mb 0.00 in0.0 mm 0.00 in0.0 mm 0.06 in1.5 mm
11:10 PM 46.9°F8.3°C 46.7°F8.2°C 99% 3.8 mph NNW6.1 kmh NNW 6.0 mph9.7 kmh 30.41 in1029.8 mb 0.00 in0.0 mm 0.00 in0.0 mm 0.06 in1.5 mm
11:20 PM 46.9°F8.3°C 46.7°F8.2°C 99% 2.2 mph NNW3.5 kmh NNW 6.9 mph11.1 kmh 30.42 in1030.1 mb 0.00 in0.0 mm 0.00 in0.0 mm 0.06 in1.5 mm
11:30 PM 46.9°F8.3°C 46.7°F8.2°C 99% 3.1 mph N5.0 kmh N 6.0 mph9.7 kmh 30.41 in1029.8 mb 0.00 in0.0 mm 0.00 in0.0 mm 0.06 in1.5 mm
11:40 PM 46.9°F8.3°C 46.7°F8.2°C 99% 2.2 mph NNW3.5 kmh NNW 6.0 mph9.7 kmh 30.42 in1030.1 mb 0.00 in0.0 mm 0.00 in0.0 mm 0.06 in1.5 mm
11:50 PM 46.9°F8.3°C 46.7°F8.2°C 99% 2.2 mph NNW3.5 kmh NNW 6.9 mph11.1 kmh 30.42 in1030.1 mb 0.00 in0.0 mm 0.00 in0.0 mm 0.06 in1.5 mm